createdAt,value
2023-01-26T00:00:54.502Z,24.13
2023-01-26T00:03:56.487Z,25.40
2023-01-26T00:06:58.085Z,22.17
2023-01-26T00:09:59.691Z,18.40
2023-01-26T00:13:01.350Z,20.70
2023-01-26T00:16:03.772Z,18.47
2023-01-26T00:19:05.419Z,21.70
2023-01-26T00:22:07.033Z,19.67
2023-01-26T00:25:08.914Z,16.63
2023-01-26T00:28:10.474Z,24.73
2023-01-26T00:31:13.471Z,18.37
2023-01-26T00:34:15.147Z,17.13
2023-01-26T00:37:16.881Z,17.93
2023-01-26T00:40:18.541Z,17.17
2023-01-26T00:43:20.154Z,18.23
2023-01-26T00:46:21.779Z,18.03
2023-01-26T00:49:23.445Z,20.20
2023-01-26T00:52:25.097Z,20.23
2023-01-26T00:55:32.428Z,20.53
2023-01-26T00:58:34.983Z,20.67
2023-01-26T01:01:36.633Z,16.60
2023-01-26T01:04:38.309Z,19.90
2023-01-26T01:07:39.929Z,16.17
2023-01-26T01:10:41.537Z,22.43
2023-01-26T01:13:43.162Z,20.03
2023-01-26T01:16:46.055Z,18.33
2023-01-26T01:19:47.646Z,19.53
2023-01-26T01:22:50.874Z,21.80
2023-01-26T01:25:59.362Z,23.37
2023-01-26T01:29:01.881Z,19.83
2023-01-26T01:32:03.844Z,20.97
2023-01-26T01:35:05.716Z,18.13
2023-01-26T01:38:07.432Z,20.13
2023-01-26T01:41:09.618Z,15.73
2023-01-26T01:44:12.406Z,20.10
2023-01-26T01:47:17.952Z,15.77
2023-01-26T01:50:19.781Z,20.63
2023-01-26T01:53:24.767Z,23.97
2023-01-26T01:56:28.784Z,22.37
2023-01-26T01:59:31.679Z,19.30
2023-01-26T02:02:33.454Z,23.03
2023-01-26T02:05:40.112Z,27.57
2023-01-26T02:08:45.488Z,23.83
2023-01-26T02:11:48.059Z,20.87
2023-01-26T02:14:52.194Z,22.17
2023-01-26T02:17:54.446Z,17.93
2023-01-26T02:20:59.097Z,24.30
2023-01-26T02:24:00.745Z,20.43
2023-01-26T02:27:03.115Z,20.80
2023-01-26T02:30:05.927Z,17.47
2023-01-26T02:33:08.909Z,18.07
2023-01-26T02:36:16.762Z,17.23
2023-01-26T02:39:54.724Z,18.17
2023-01-26T02:42:56.348Z,21.37
2023-01-26T02:45:58.048Z,19.47
2023-01-26T02:49:18.303Z,19.53
2023-01-26T02:52:21.705Z,19.47
2023-01-26T02:55:30.179Z,21.80
2023-01-26T02:58:32.666Z,20.73
2023-01-26T03:01:34.248Z,17.57
2023-01-26T03:04:35.834Z,20.27
2023-01-26T03:07:37.456Z,21.13
2023-01-26T03:10:39.148Z,18.70
2023-01-26T03:13:41.378Z,16.23
2023-01-26T03:16:43.058Z,19.93
2023-01-26T03:20:03.428Z,19.17
2023-01-26T03:23:26.443Z,16.80
2023-01-26T03:26:47.026Z,17.93
2023-01-26T03:29:48.784Z,19.37
2023-01-26T03:32:50.413Z,18.57
2023-01-26T03:35:53.298Z,15.03
2023-01-26T03:38:56.263Z,17.70
2023-01-26T03:42:16.710Z,15.87
2023-01-26T03:45:36.956Z,21.93
2023-01-26T03:48:57.355Z,18.17
2023-01-26T03:52:18.495Z,20.47
2023-01-26T03:55:38.978Z,18.40
2023-01-26T03:58:40.683Z,20.23
2023-01-26T04:02:02.085Z,19.23
2023-01-26T04:05:22.868Z,26.03
2023-01-26T04:08:29.328Z,20.97
2023-01-26T04:11:33.791Z,20.77
2023-01-26T04:14:54.197Z,19.87
2023-01-26T04:18:17.917Z,19.67
2023-01-26T04:21:48.949Z,20.77
2023-01-26T04:24:53.769Z,23.83
2023-01-26T04:27:55.430Z,25.03
2023-01-26T04:30:57.129Z,27.77
2023-01-26T04:33:59.929Z,26.43
2023-01-26T04:37:03.344Z,32.10
2023-01-26T04:40:18.205Z,22.23
2023-01-26T04:43:21.141Z,21.80
2023-01-26T04:46:22.904Z,24.67
2023-01-26T04:49:24.849Z,21.80
2023-01-26T04:52:27.129Z,23.97
2023-01-26T04:55:28.806Z,22.40
2023-01-26T04:58:30.596Z,17.87
2023-01-26T05:01:32.694Z,21.40
2023-01-26T05:04:34.317Z,26.13
2023-01-26T05:07:36.494Z,24.73
2023-01-26T05:10:38.527Z,22.63
2023-01-26T05:13:59.472Z,23.07
2023-01-26T05:17:11.740Z,29.20
2023-01-26T05:20:29.466Z,29.93
2023-01-26T05:23:44.262Z,26.83
2023-01-26T05:27:23.172Z,25.67
2023-01-26T05:30:28.494Z,36.00
2023-01-26T05:33:30.518Z,51.83
2023-01-26T05:36:34.442Z,52.13
2023-01-26T05:39:36.112Z,38.60
2023-01-26T05:42:42.569Z,33.63
2023-01-26T05:46:18.549Z,31.60
2023-01-26T05:49:20.844Z,51.80
2023-01-26T05:52:22.808Z,34.30
2023-01-26T05:55:25.626Z,31.17
2023-01-26T05:58:27.289Z,34.00
2023-01-26T06:01:29.122Z,35.40
2023-01-26T06:04:36.389Z,59.50
2023-01-26T06:07:38.370Z,31.90
2023-01-26T06:10:58.525Z,52.30
2023-01-26T06:14:16.836Z,40.70
2023-01-26T06:17:18.801Z,36.07
2023-01-26T06:20:22.517Z,35.60
2023-01-26T06:23:32.071Z,44.97
2023-01-26T06:26:36.603Z,42.33
2023-01-26T06:29:38.284Z,47.27
2023-01-26T06:32:39.875Z,38.73
2023-01-26T06:35:42.104Z,38.63
2023-01-26T06:38:47.775Z,38.77
2023-01-26T06:41:49.592Z,41.20
2023-01-26T06:44:52.029Z,37.97
2023-01-26T06:47:53.621Z,40.47
2023-01-26T06:51:04.800Z,44.53
2023-01-26T06:54:13.013Z,39.93
2023-01-26T06:57:32.863Z,37.57
2023-01-26T07:01:00.797Z,37.30
2023-01-26T07:04:08.921Z,36.20
2023-01-26T07:07:10.839Z,42.47
2023-01-26T07:10:12.837Z,43.63
2023-01-26T07:13:14.623Z,52.00
2023-01-26T07:16:17.024Z,51.93
2023-01-26T07:19:18.641Z,50.90
2023-01-26T07:22:20.413Z,40.80
2023-01-26T07:25:22.112Z,41.73
2023-01-26T07:28:26.074Z,39.63
2023-01-26T07:31:30.498Z,43.97
2023-01-26T07:34:32.281Z,39.00
2023-01-26T07:37:33.861Z,40.60
2023-01-26T07:40:35.576Z,45.43
2023-01-26T07:43:37.769Z,49.40
2023-01-26T07:46:45.587Z,61.27
2023-01-26T07:49:47.362Z,47.63
2023-01-26T07:52:49.154Z,53.63
2023-01-26T07:55:50.797Z,41.53
2023-01-26T07:58:52.963Z,41.87
2023-01-26T08:01:54.623Z,55.73
2023-01-26T08:04:56.305Z,56.37
2023-01-26T08:07:58.879Z,55.03
2023-01-26T08:11:01.395Z,49.70
2023-01-26T08:14:03.060Z,58.43
2023-01-26T08:17:04.739Z,69.73
2023-01-26T08:20:06.860Z,45.67
2023-01-26T08:23:08.415Z,46.27
2023-01-26T08:26:11.354Z,43.80
2023-01-26T08:29:15.449Z,61.27
2023-01-26T08:32:20.193Z,58.00
2023-01-26T08:35:21.827Z,44.03
2023-01-26T08:38:23.641Z,41.23
2023-01-26T08:41:25.263Z,41.03
2023-01-26T08:44:26.901Z,35.13
2023-01-26T08:47:30.844Z,36.67
2023-01-26T08:50:35.135Z,34.77
2023-01-26T08:53:37.402Z,45.43
2023-01-26T08:56:38.950Z,51.63
2023-01-26T08:59:40.515Z,39.70
2023-01-26T09:02:42.370Z,45.73
2023-01-26T09:05:44.032Z,44.27
2023-01-26T09:08:45.704Z,34.83
2023-01-26T09:11:47.352Z,40.03
2023-01-26T09:14:52.104Z,50.43
2023-01-26T09:17:53.786Z,45.87
2023-01-26T09:20:55.954Z,99.93
2023-01-26T09:24:00.019Z,40.00
2023-01-26T09:27:02.976Z,50.63
2023-01-26T09:30:09.073Z,48.30
2023-01-26T09:33:12.803Z,49.70
2023-01-26T09:36:14.574Z,64.20
2023-01-26T09:39:16.488Z,58.27
2023-01-26T09:42:24.187Z,62.37
2023-01-26T09:45:38.070Z,72.07
2023-01-26T09:49:03.091Z,75.00
2023-01-26T09:52:06.494Z,62.90
2023-01-26T09:55:15.871Z,59.30
2023-01-26T09:58:20.040Z,65.03
2023-01-26T10:01:28.614Z,58.23
2023-01-26T10:04:41.664Z,48.60
2023-01-26T10:07:45.395Z,53.67
2023-01-26T10:10:59.089Z,87.33
2023-01-26T10:14:05.552Z,82.27
2023-01-26T10:17:13.016Z,89.03
2023-01-26T10:20:17.435Z,100.27
2023-01-26T10:23:29.446Z,74.07
2023-01-26T10:26:32.605Z,80.43
2023-01-26T10:29:36.227Z,70.43
2023-01-26T10:32:38.540Z,43.43
2023-01-26T10:35:40.228Z,50.30
2023-01-26T10:38:43.013Z,40.70
2023-01-26T10:41:58.159Z,52.27
2023-01-26T10:45:02.154Z,39.30
2023-01-26T10:48:05.647Z,38.30
2023-01-26T10:51:27.190Z,34.37
2023-01-26T10:54:28.894Z,34.33
2023-01-26T10:57:32.549Z,34.30
2023-01-26T11:00:34.683Z,36.67
2023-01-26T11:03:36.333Z,39.00
2023-01-26T11:06:38.274Z,35.70
2023-01-26T11:09:39.839Z,30.47
2023-01-26T11:12:43.637Z,38.43
2023-01-26T11:15:47.977Z,38.73
2023-01-26T11:19:12.458Z,115.80
2023-01-26T11:22:27.827Z,59.47
2023-01-26T11:25:40.771Z,52.23
2023-01-26T11:28:42.389Z,53.73
2023-01-26T11:31:58.726Z,36.33
2023-01-26T11:35:06.144Z,49.00
2023-01-26T11:38:10.853Z,36.57
2023-01-26T11:41:31.050Z,34.10
2023-01-26T11:44:46.202Z,31.87
2023-01-26T11:48:03.253Z,53.20
2023-01-26T11:51:05.784Z,37.17
2023-01-26T11:54:22.738Z,44.07
2023-01-26T11:57:31.940Z,39.03
2023-01-26T12:00:41.497Z,43.50
2023-01-26T12:03:45.380Z,43.17
2023-01-26T12:06:49.189Z,46.37
2023-01-26T12:09:52.946Z,40.37
2023-01-26T12:13:13.377Z,39.83
2023-01-26T12:16:21.582Z,39.63
2023-01-26T12:19:34.416Z,35.50
2023-01-26T12:22:40.449Z,35.60
2023-01-26T12:25:45.368Z,38.23
2023-01-26T12:28:47.038Z,41.10
2023-01-26T12:32:01.019Z,51.60
2023-01-26T12:35:02.896Z,40.13
2023-01-26T12:38:18.000Z,46.10
2023-01-26T12:41:33.018Z,40.97
2023-01-26T12:44:40.554Z,44.53
2023-01-26T12:47:56.866Z,45.57
2023-01-26T12:51:03.997Z,38.80
2023-01-26T12:54:11.729Z,38.77
2023-01-26T12:57:17.221Z,44.57
2023-01-26T13:00:22.444Z,39.67
2023-01-26T13:03:25.624Z,42.07
2023-01-26T13:06:28.127Z,41.83
2023-01-26T13:09:30.238Z,48.43
2023-01-26T13:13:07.401Z,50.73
2023-01-26T13:16:15.113Z,58.33
2023-01-26T13:19:31.701Z,79.90
2023-01-26T13:22:41.314Z,77.80
2023-01-26T13:25:54.146Z,108.90
2023-01-26T13:29:16.582Z,95.03
2023-01-26T13:32:18.183Z,48.73
2023-01-26T13:35:21.422Z,120.77
2023-01-26T13:38:29.330Z,50.73
2023-01-26T13:41:30.998Z,49.07
2023-01-26T13:44:32.900Z,54.17
2023-01-26T13:47:37.949Z,52.80
2023-01-26T13:50:40.598Z,42.67
2023-01-26T13:53:48.452Z,49.07
2023-01-26T13:57:00.481Z,57.80
2023-01-26T14:00:02.243Z,47.43
2023-01-26T14:03:22.252Z,54.10
2023-01-26T14:06:24.293Z,53.30
2023-01-26T14:09:27.239Z,63.90
2023-01-26T14:12:34.804Z,58.73
2023-01-26T14:15:36.554Z,59.43
2023-01-26T14:18:38.307Z,58.10
2023-01-26T14:21:53.448Z,51.00
2023-01-26T14:24:55.556Z,57.67
2023-01-26T14:27:57.203Z,64.90
2023-01-26T14:31:02.686Z,60.23
2023-01-26T14:34:08.722Z,60.43
2023-01-26T14:37:17.862Z,62.83
2023-01-26T14:40:24.303Z,53.80
2023-01-26T14:43:27.258Z,58.93
2023-01-26T14:46:36.554Z,60.37
2023-01-26T14:49:53.552Z,84.40
2023-01-26T14:52:55.578Z,65.17
2023-01-26T14:55:57.264Z,70.77
2023-01-26T14:58:59.001Z,70.17
2023-01-26T15:02:21.399Z,74.33
2023-01-26T15:05:33.508Z,63.63
2023-01-26T15:08:36.336Z,68.47
2023-01-26T15:11:57.696Z,80.63
2023-01-26T15:14:59.548Z,60.10
2023-01-26T15:18:02.339Z,63.17
2023-01-26T15:21:07.007Z,63.03
2023-01-26T15:24:13.073Z,61.77
2023-01-26T15:27:14.827Z,57.90
2023-01-26T15:30:17.370Z,56.60
2023-01-26T15:33:37.023Z,67.13
2023-01-26T15:36:49.000Z,69.03
2023-01-26T15:39:50.663Z,84.93
2023-01-26T15:43:04.363Z,74.30
2023-01-26T15:46:05.980Z,72.77
2023-01-26T15:49:07.689Z,79.57
2023-01-26T15:52:13.482Z,75.50
2023-01-26T15:55:20.457Z,72.07
2023-01-26T15:58:22.897Z,78.57
2023-01-26T16:01:24.555Z,67.43
2023-01-26T16:04:28.190Z,78.40
2023-01-26T16:07:29.913Z,62.07
2023-01-26T16:10:31.911Z,89.07
2023-01-26T16:13:34.187Z,111.90
2023-01-26T16:16:35.884Z,80.20
2023-01-26T16:19:38.035Z,74.60
2023-01-26T16:22:40.009Z,83.57
2023-01-26T16:25:41.920Z,121.57
2023-01-26T16:28:43.731Z,58.47
2023-01-26T16:31:45.919Z,77.07
2023-01-26T16:34:50.158Z,70.07
2023-01-26T16:37:52.727Z,75.97
2023-01-26T16:40:54.506Z,94.13
2023-01-26T16:43:57.534Z,104.53
2023-01-26T16:47:00.333Z,89.90
2023-01-26T16:50:02.127Z,92.37
2023-01-26T16:53:07.567Z,87.53
2023-01-26T16:56:10.535Z,81.97
2023-01-26T16:59:12.228Z,70.60
2023-01-26T17:02:34.591Z,74.63
2023-01-26T17:05:36.268Z,76.83
2023-01-26T17:08:38.475Z,84.70
2023-01-26T17:11:40.227Z,75.77
2023-01-26T17:14:42.106Z,71.80
2023-01-26T17:17:45.627Z,77.13
2023-01-26T17:20:47.278Z,78.13
2023-01-26T17:23:49.766Z,72.07
2023-01-26T17:26:51.678Z,80.53
2023-01-26T17:29:53.302Z,67.17
2023-01-26T17:32:55.104Z,107.77
2023-01-26T17:36:00.887Z,115.37
2023-01-26T17:39:02.646Z,105.93
2023-01-26T17:42:04.356Z,105.20
2023-01-26T17:45:07.817Z,78.33
2023-01-26T17:48:09.546Z,85.50
2023-01-26T17:51:16.672Z,74.83
2023-01-26T17:54:18.734Z,77.00
2023-01-26T17:57:22.049Z,74.30
2023-01-26T18:00:26.863Z,77.07
2023-01-26T18:03:28.578Z,69.53
2023-01-26T18:06:33.330Z,91.00
2023-01-26T18:09:35.083Z,101.30
2023-01-26T18:12:38.087Z,77.07
2023-01-26T18:15:40.038Z,66.67
2023-01-26T18:18:42.770Z,78.13
2023-01-26T18:21:44.451Z,81.50
2023-01-26T18:24:48.059Z,106.17
2023-01-26T18:27:49.975Z,98.23
2023-01-26T18:30:51.936Z,87.67
2023-01-26T18:33:54.119Z,89.87
2023-01-26T18:36:56.078Z,76.50
2023-01-26T18:39:57.957Z,95.73
2023-01-26T18:42:59.666Z,75.53
2023-01-26T18:46:02.942Z,65.83
2023-01-26T18:49:04.778Z,88.00
2023-01-26T18:52:06.393Z,81.33
2023-01-26T18:55:09.196Z,70.63
2023-01-26T18:58:10.988Z,67.90
2023-01-26T19:01:14.649Z,313.70
2023-01-26T19:04:18.247Z,67.30
2023-01-26T19:07:20.347Z,61.57
2023-01-26T19:10:22.251Z,49.10
2023-01-26T19:13:24.050Z,35.60
2023-01-26T19:16:25.973Z,58.13
2023-01-26T19:19:29.378Z,54.60
2023-01-26T19:22:31.360Z,62.50
2023-01-26T19:25:35.753Z,47.23
2023-01-26T19:28:40.850Z,49.67
2023-01-26T19:31:42.841Z,36.30
2023-01-26T19:34:47.653Z,41.63
2023-01-26T19:37:49.877Z,34.43
2023-01-26T19:40:52.177Z,39.97
2023-01-26T19:43:54.072Z,37.53
2023-01-26T19:46:56.053Z,26.47
2023-01-26T19:49:57.638Z,30.13
2023-01-26T19:52:59.694Z,31.80
2023-01-26T19:56:05.481Z,28.90
2023-01-26T19:59:10.370Z,30.73
2023-01-26T20:02:12.067Z,44.93
2023-01-26T20:05:13.906Z,40.70
2023-01-26T20:08:18.422Z,39.03
2023-01-26T20:11:25.017Z,44.10
2023-01-26T20:14:29.681Z,34.73
2023-01-26T20:17:34.420Z,35.83
2023-01-26T20:20:36.368Z,35.53
2023-01-26T20:23:43.364Z,38.53
2023-01-26T20:26:53.409Z,27.47
2023-01-26T20:29:55.335Z,31.73
2023-01-26T20:32:59.802Z,77.80
2023-01-26T20:36:04.887Z,118.93
2023-01-26T20:39:08.990Z,79.57
2023-01-26T20:42:12.176Z,85.30
2023-01-26T20:45:14.864Z,52.87
2023-01-26T20:48:17.114Z,42.27
2023-01-26T20:51:35.182Z,40.80
2023-01-26T20:54:36.979Z,32.37
2023-01-26T20:57:38.791Z,31.80
2023-01-26T21:00:40.539Z,28.83
2023-01-26T21:03:42.742Z,25.03
2023-01-26T21:06:45.019Z,60.53
2023-01-26T21:09:46.853Z,38.77
2023-01-26T21:12:48.675Z,43.23
2023-01-26T21:15:51.144Z,34.97
2023-01-26T21:18:52.858Z,30.67
2023-01-26T21:21:54.713Z,31.67
2023-01-26T21:25:00.029Z,18.50
2023-01-26T21:28:01.822Z,17.53
2023-01-26T21:31:10.428Z,17.03
2023-01-26T21:34:12.744Z,19.13
2023-01-26T21:37:14.345Z,18.83
2023-01-26T21:40:16.169Z,19.87
2023-01-26T21:43:18.303Z,20.13
2023-01-26T21:46:22.978Z,21.97
2023-01-26T21:49:25.001Z,24.20
2023-01-26T21:52:45.393Z,31.03
2023-01-26T21:55:47.219Z,32.50
2023-01-26T21:58:54.732Z,28.27
2023-01-26T22:01:57.206Z,29.55
2023-01-26T22:04:58.861Z,29.20
2023-01-26T22:08:00.465Z,31.40
2023-01-26T22:11:02.101Z,22.63
2023-01-26T22:14:04.010Z,26.13
2023-01-26T22:17:05.601Z,20.50
2023-01-26T22:20:07.499Z,15.97
2023-01-26T22:23:09.431Z,14.63
2023-01-26T22:26:14.160Z,17.67
2023-01-26T22:29:16.031Z,13.00
2023-01-26T22:32:17.744Z,18.33
2023-01-26T22:35:19.571Z,19.83
2023-01-26T22:38:21.188Z,25.90
2023-01-26T22:41:24.569Z,21.73
2023-01-26T22:44:27.245Z,16.17
2023-01-26T22:47:28.849Z,23.63
2023-01-26T22:50:30.571Z,24.40
2023-01-26T22:53:32.175Z,21.33
2023-01-26T22:56:33.864Z,20.93
2023-01-26T22:59:35.604Z,18.07
2023-01-26T23:02:37.208Z,20.70
2023-01-26T23:05:38.851Z,18.87
2023-01-26T23:08:40.834Z,18.53
2023-01-26T23:11:42.430Z,23.00
2023-01-26T23:14:44.059Z,29.63
2023-01-26T23:17:48.202Z,14.77
2023-01-26T23:20:49.893Z,13.10
2023-01-26T23:23:51.770Z,11.80
2023-01-26T23:26:53.414Z,11.67
2023-01-26T23:29:55.049Z,12.23
2023-01-26T23:32:56.737Z,16.30
2023-01-26T23:35:58.583Z,10.90
2023-01-26T23:39:00.225Z,14.50
2023-01-26T23:42:01.815Z,14.93
2023-01-26T23:45:03.658Z,15.93
2023-01-26T23:48:05.404Z,15.97
2023-01-26T23:51:08.603Z,14.23
2023-01-26T23:54:10.206Z,18.93
2023-01-26T23:57:11.805Z,14.83
